Time;durP1;ratioP1;P1;durP2;ratioP2;P2;SDS_P1;SDS_P2;PMS_P1;PMS_P2;Temp;Humidity;BMP_temperature;BMP_pressure;BME280_temperature;BME280_humidity;BME280_pressure;Samples;Min_cycle;Max_cycle;Signal;HPM_P1;HPM_P2
2021/03/27 00:02:28;;;;;;;12.67;8.50;;;;;;;11.95;68.08;96180.25;5020283;28;20407;-84
2021/03/27 00:05:05;;;;;;;14.77;7.50;;;;;;;11.89;69.83;96182.47;5020482;28;20436;-84
2021/03/27 00:07:36;;;;;;;10.20;7.30;;;;;;;11.88;70.94;96183.75;5020738;28;20433;-83
2021/03/27 00:10:16;;;;;;;9.67;7.27;;;;;;;11.87;70.81;96196.56;5022024;28;20552;-83
2021/03/27 00:12:46;;;;;;;11.13;7.60;;;;;;;11.81;72.00;96190.63;5022010;28;20527;-83
2021/03/27 00:15:20;;;;;;;9.93;6.77;;;;;;;11.73;72.58;96196.13;5021886;28;20411;-83
2021/03/27 00:17:53;;;;;;;9.40;6.70;;;;;;;11.76;72.07;96189.59;5021306;28;20583;-82
2021/03/27 00:20:24;;;;;;;8.70;6.30;;;;;;;11.74;72.52;96194.13;5021502;28;20909;-84
2021/03/27 00:22:56;;;;;;;10.40;7.73;;;;;;;11.60;72.49;96201.03;5018769;28;20403;-85
2021/03/27 00:25:27;;;;;;;13.47;6.27;;;;;;;11.61;72.90;96197.78;5017281;28;20440;-84
2021/03/27 00:28:07;;;;;;;7.00;5.80;;;;;;;11.53;72.97;96193.69;5020993;28;20403;-82
2021/03/27 00:30:40;;;;;;;6.90;5.50;;;;;;;11.54;73.39;96185.03;5021441;28;20431;-83
2021/03/27 00:33:07;;;;;;;9.10;5.53;;;;;;;11.54;73.40;96154.59;5020534;28;20395;-83
2021/03/27 00:35:38;;;;;;;9.30;6.47;;;;;;;11.45;74.61;96169.44;5020043;28;20411;-83
2021/03/27 00:38:09;;;;;;;8.00;5.23;;;;;;;11.50;74.92;96168.50;5019717;28;20537;-84
2021/03/27 00:40:42;;;;;;;8.50;5.50;;;;;;;11.45;75.24;96168.72;5019960;28;20491;-84
2021/03/27 00:43:14;;;;;;;9.07;5.70;;;;;;;11.40;75.61;96162.28;5020942;28;20889;-84
2021/03/27 00:45:43;;;;;;;6.03;5.43;;;;;;;11.36;75.57;96161.94;5024650;28;20434;-84
2021/03/27 00:48:16;;;;;;;9.83;6.63;;;;;;;11.33;76.21;96168.44;5037092;28;20439;-85
2021/03/27 00:50:47;;;;;;;7.07;5.23;;;;;;;11.33;75.84;96160.31;5037410;28;20470;-84
2021/03/27 00:53:17;;;;;;;7.30;5.23;;;;;;;11.25;76.70;96160.34;5026141;28;20442;-83
2021/03/27 00:55:49;;;;;;;10.17;6.60;;;;;;;11.16;76.21;96171.03;5018346;28;20392;-83
2021/03/27 00:58:23;;;;;;;10.10;6.20;;;;;;;11.07;76.92;96168.91;5021006;28;20552;-84
2021/03/27 01:00:52;;;;;;;7.90;5.07;;;;;;;11.07;76.77;96160.81;5021530;28;20515;-84
2021/03/27 01:03:22;;;;;;;6.60;5.40;;;;;;;11.07;76.57;96155.41;5022139;28;20471;-84
2021/03/27 01:05:51;;;;;;;6.37;4.67;;;;;;;11.04;77.01;96161.91;5022982;28;20429;-84
2021/03/27 01:08:19;;;;;;;7.93;5.20;;;;;;;11.02;77.33;96161.75;5026162;28;20437;-83
2021/03/27 01:10:51;;;;;;;9.50;5.13;;;;;;;11.02;77.78;96165.19;5041352;28;20422;-85
2021/03/27 01:13:22;;;;;;;7.63;5.90;;;;;;;10.81;78.38;96167.41;5041317;28;20403;-84
2021/03/27 01:15:52;;;;;;;6.60;5.23;;;;;;;10.83;79.28;96164.91;5041198;28;20403;-84
2021/03/27 01:18:23;;;;;;;8.87;5.00;;;;;;;10.80;79.92;96162.56;5038470;28;20446;-83
2021/03/27 01:20:54;;;;;;;6.17;4.83;;;;;;;10.77;80.53;96170.47;5041960;28;20432;-83
2021/03/27 01:23:21;;;;;;;8.50;6.50;;;;;;;10.73;80.44;96169.44;5042114;28;20484;-82
2021/03/27 01:25:48;;;;;;;7.00;5.50;;;;;;;10.67;81.41;96166.22;5042369;28;20418;-83
2021/03/27 01:28:24;;;;;;;9.97;5.80;;;;;;;10.56;82.40;96172.72;5043612;28;20934;-83
2021/03/27 01:31:01;;;;;;;7.80;5.37;;;;;;;10.57;82.81;96168.75;5043607;28;20514;-83
2021/03/27 01:33:34;;;;;;;9.10;6.10;;;;;;;10.61;82.21;96163.72;5044410;28;20436;-83
2021/03/27 01:36:11;;;;;;;8.90;6.60;;;;;;;10.55;82.84;96165.91;5043845;28;20482;-83
2021/03/27 01:38:44;;;;;;;8.80;6.23;;;;;;;10.53;83.08;96165.72;5042676;28;20470;-83
2021/03/27 01:41:19;;;;;;;7.90;5.63;;;;;;;10.55;83.38;96165.91;5043073;28;20412;-83
2021/03/27 01:44:03;;;;;;;8.83;6.37;;;;;;;10.60;83.43;96167.69;5042767;28;20498;-83
2021/03/27 01:46:55;;;;;;;10.53;6.50;;;;;;;10.51;84.43;96170.94;5041684;28;20427;-84
2021/03/27 01:49:32;;;;;;;11.67;6.03;;;;;;;10.54;84.41;96169.84;5041961;28;20837;-83
2021/03/27 01:52:10;;;;;;;8.50;5.63;;;;;;;10.57;85.09;96179.56;5041191;28;20386;-83
2021/03/27 01:54:43;;;;;;;7.70;5.67;;;;;;;10.56;86.33;96167.31;5042296;28;20912;-84
2021/03/27 01:57:19;;;;;;;9.23;6.20;;;;;;;10.51;87.33;96175.63;5042007;28;20451;-84
2021/03/27 01:59:49;;;;;;;8.80;6.50;;;;;;;10.36;89.55;96176.38;5041394;28;20502;-84
2021/03/27 02:02:21;;;;;;;9.13;6.30;;;;;;;10.31;89.61;96177.25;5042133;28;20418;-84
2021/03/27 02:04:54;;;;;;;8.60;6.20;;;;;;;10.34;90.30;96180.88;5042086;28;20444;-84
2021/03/27 02:07:30;;;;;;;9.10;6.27;;;;;;;10.24;91.06;96186.09;5041967;28;20427;-84
2021/03/27 02:10:02;;;;;;;7.43;5.83;;;;;;;10.31;91.10;96190.75;5040713;28;20836;-84
2021/03/27 02:12:37;;;;;;;12.37;6.43;;;;;;;10.32;91.16;96200.28;5040121;28;20508;-85
2021/03/27 02:15:08;;;;;;;7.27;5.63;;;;;;;10.30;90.81;96194.72;5040270;28;20444;-85
2021/03/27 02:17:42;;;;;;;11.63;7.37;;;;;;;10.18;91.74;96204.44;5039889;28;21074;-85
2021/03/27 02:20:59;;;;;;;8.07;6.60;;;;;;;10.17;92.33;96203.00;5045723;28;20455;-85
2021/03/27 02:23:36;;;;;;;11.27;6.90;;;;;;;10.20;92.71;96204.63;5049008;28;20470;-85
2021/03/27 02:26:24;;;;;;;8.23;5.63;;;;;;;10.20;92.45;96208.03;5049525;28;20430;-85
2021/03/27 02:29:27;;;;;;;9.00;6.80;;;;;;;10.15;93.59;96211.63;5049425;28;20448;-82
2021/03/27 02:31:59;;;;;;;8.03;6.30;;;;;;;10.12;94.11;96217.34;5056596;28;20418;-81
2021/03/27 02:34:35;;;;;;;10.13;7.03;;;;;;;10.08;94.56;96211.63;5056313;28;20452;-82
2021/03/27 02:37:06;;;;;;;10.13;7.33;;;;;;;10.06;94.83;96214.84;5041191;28;20439;-82
2021/03/27 02:39:41;;;;;;;11.63;7.00;;;;;;;10.00;95.51;96217.00;5040948;28;20968;-83
2021/03/27 02:42:19;;;;;;;7.93;6.03;;;;;;;10.04;96.08;96224.72;5041313;28;20406;-83
2021/03/27 02:44:50;;;;;;;12.53;6.80;;;;;;;10.02;96.33;96230.66;5042167;28;20565;-84
2021/03/27 02:47:35;;;;;;;8.37;6.10;;;;;;;10.02;96.59;96240.72;5041260;28;20838;-84
2021/03/27 02:50:16;;;;;;;10.70;6.50;;;;;;;9.94;97.05;96232.63;5041446;28;20475;-83
2021/03/27 02:52:56;;;;;;;8.43;6.03;;;;;;;9.98;97.27;96234.97;5041444;28;20437;-82
2021/03/27 02:55:32;;;;;;;10.57;6.93;;;;;;;9.97;97.96;96217.34;5040841;28;20439;-82
2021/03/27 02:58:08;;;;;;;8.10;5.90;;;;;;;9.99;97.64;96204.06;5040958;28;20438;-83
2021/03/27 03:00:43;;;;;;;9.30;6.30;;;;;;;9.88;97.77;96194.38;5041245;28;20448;-82
2021/03/27 03:03:19;;;;;;;8.03;6.17;;;;;;;9.92;97.77;96210.91;5041591;28;20805;-83
2021/03/27 03:05:51;;;;;;;8.03;6.13;;;;;;;9.90;97.48;96199.22;5041443;28;20431;-83
2021/03/27 03:08:23;;;;;;;12.33;6.70;;;;;;;9.92;97.54;96189.34;5041368;28;20435;-82
2021/03/27 03:10:58;;;;;;;7.50;6.00;;;;;;;9.88;97.38;96204.41;5041562;28;20762;-83
2021/03/27 03:13:31;;;;;;;8.53;6.10;;;;;;;9.88;97.72;96201.72;5041500;28;20416;-83
2021/03/27 03:16:07;;;;;;;8.47;5.33;;;;;;;9.95;97.57;96190.94;5041507;28;20456;-82
2021/03/27 03:18:45;;;;;;;9.13;4.50;;;;;;;9.86;97.27;96196.88;5042047;28;20475;-82
2021/03/27 03:21:20;;;;;;;8.90;5.87;;;;;;;9.86;97.68;96207.66;5042262;28;20526;-82
2021/03/27 03:23:57;;;;;;;6.30;4.57;;;;;;;9.89;97.35;96214.66;5041120;28;20490;-82
2021/03/27 03:26:34;;;;;;;9.13;4.93;;;;;;;9.80;97.39;96217.91;5042058;28;20398;-81
2021/03/27 03:29:12;;;;;;;5.23;4.03;;;;;;;9.78;97.61;96208.91;5043523;28;20523;-81
2021/03/27 03:31:48;;;;;;;5.87;4.40;;;;;;;9.74;97.64;96224.72;5043368;28;20427;-81
2021/03/27 03:34:27;;;;;;;7.93;4.37;;;;;;;9.79;98.12;96235.31;5042808;28;20457;-81
2021/03/27 03:37:04;;;;;;;4.03;3.63;;;;;;;9.71;97.64;96239.25;5042290;28;20408;-82
2021/03/27 03:39:45;;;;;;;5.67;4.10;;;;;;;9.69;97.23;96253.97;5042251;28;20550;-81
2021/03/27 03:42:28;;;;;;;4.00;3.60;;;;;;;9.73;97.83;96272.50;5042302;28;20420;-81
2021/03/27 03:45:02;;;;;;;7.53;3.43;;;;;;;9.59;97.63;96280.00;5041873;28;20431;-83
2021/03/27 03:47:40;;;;;;;6.33;4.27;;;;;;;9.50;98.39;96274.41;5040624;28;20434;-81
2021/03/27 03:50:15;;;;;;;5.70;4.30;;;;;;;9.46;99.29;96298.28;5040999;28;20437;-83
2021/03/27 03:53:00;;;;;;;4.30;3.50;;;;;;;9.45;98.33;96335.25;5040213;28;20518;-82
2021/03/27 03:55:36;;;;;;;7.07;4.40;;;;;;;9.33;95.89;96346.88;5039885;28;20429;-82
2021/03/27 03:58:23;;;;;;;2.57;1.90;;;;;;;9.13;92.79;96357.19;5039671;28;20605;-82
2021/03/27 04:00:59;;;;;;;2.13;1.47;;;;;;;9.01;91.42;96355.31;5040360;28;20429;-83
2021/03/27 04:03:32;;;;;;;3.10;1.10;;;;;;;8.75;88.65;96350.13;5040393;28;20442;-82
2021/03/27 04:06:01;;;;;;;2.00;0.97;;;;;;;8.58;88.23;96353.94;5039889;28;20508;-83
2021/03/27 04:08:39;;;;;;;1.00;0.90;;;;;;;8.47;87.98;96348.13;5040140;28;20425;-83
2021/03/27 04:11:29;;;;;;;2.57;0.87;;;;;;;8.49;87.94;96356.38;5040911;28;20578;-82
2021/03/27 04:14:25;;;;;;;1.63;0.77;;;;;;;8.22;88.19;96368.47;5055729;28;20494;-83
2021/03/27 04:16:57;;;;;;;0.93;0.70;;;;;;;8.25;88.88;96373.53;5058143;28;20479;-83
2021/03/27 04:19:27;;;;;;;1.23;0.90;;;;;;;8.16;88.76;96371.28;5057919;28;20542;-83
2021/03/27 04:22:08;;;;;;;1.33;0.83;;;;;;;8.20;88.38;96379.75;5050802;28;20434;-83
2021/03/27 04:24:44;;;;;;;1.40;0.60;;;;;;;8.15;88.93;96388.66;5040131;28;20463;-83
2021/03/27 04:27:24;;;;;;;2.10;0.97;;;;;;;8.20;87.07;96401.25;5039951;28;20477;-83
2021/03/27 04:30:00;;;;;;;1.97;0.80;;;;;;;8.15;87.76;96396.00;5040031;28;20960;-83
2021/03/27 04:32:38;;;;;;;1.33;0.90;;;;;;;7.97;87.52;96395.66;5040170;28;20466;-83
2021/03/27 04:35:16;;;;;;;0.90;0.60;;;;;;;7.98;87.16;96401.75;5039899;28;20939;-83
2021/03/27 04:37:49;;;;;;;2.97;0.60;;;;;;;7.94;87.83;96406.72;5042995;28;20558;-83
2021/03/27 04:40:22;;;;;;;0.80;0.80;;;;;;;7.87;87.90;96424.19;5044034;28;20451;-83
2021/03/27 04:42:53;;;;;;;4.23;0.80;;;;;;;7.83;88.65;96418.41;5044096;28;20432;-83
2021/03/27 04:45:26;;;;;;;1.00;0.70;;;;;;;7.88;88.67;96430.28;5043669;28;20481;-82
2021/03/27 04:48:07;;;;;;;5.63;0.80;;;;;;;8.00;88.00;96448.34;5044179;28;20876;-82
2021/03/27 04:50:42;;;;;;;3.97;0.80;;;;;;;7.91;87.43;96461.47;5044887;28;20534;-83
2021/03/27 04:53:17;;;;;;;6.60;1.63;;;;;;;7.90;87.44;96466.13;5044129;28;20447;-82
2021/03/27 04:55:50;;;;;;;1.27;1.10;;;;;;;7.86;86.76;96471.09;5043910;28;20492;-82
2021/03/27 04:58:27;;;;;;;1.23;0.77;;;;;;;7.74;84.94;96471.81;5043890;28;20501;-82
2021/03/27 05:01:05;;;;;;;0.90;0.60;;;;;;;7.74;85.70;96490.63;5043504;28;20540;-83
2021/03/27 05:03:38;;;;;;;1.37;0.67;;;;;;;7.64;84.89;96500.34;5044468;28;20451;-83
2021/03/27 05:06:11;;;;;;;0.80;0.73;;;;;;;7.61;83.85;96506.75;5045363;28;20448;-82
2021/03/27 05:09:01;;;;;;;1.30;0.67;;;;;;;7.43;85.04;96514.38;5045310;28;20529;-83
2021/03/27 05:11:42;;;;;;;1.20;0.60;;;;;;;7.39;86.13;96521.28;5045017;28;20435;-83
2021/03/27 05:14:21;;;;;;;0.83;0.60;;;;;;;7.49;84.03;96533.78;5045318;28;20427;-83
2021/03/27 05:16:54;;;;;;;2.50;1.20;;;;;;;7.48;83.76;96537.00;5045176;28;20482;-82
2021/03/27 05:19:32;;;;;;;1.17;0.60;;;;;;;7.41;84.29;96540.28;5047020;28;20495;-83
2021/03/27 05:22:06;;;;;;;2.10;0.90;;;;;;;7.31;84.47;96541.91;5046485;28;20465;-83
2021/03/27 05:24:56;;;;;;;0.70;0.50;;;;;;;7.25;83.88;96550.06;5045919;28;20458;-83
2021/03/27 05:27:36;;;;;;;2.53;0.50;;;;;;;7.22;84.78;96567.19;5045688;28;20475;-83
2021/03/27 05:30:13;;;;;;;0.60;0.50;;;;;;;7.14;84.11;96571.00;5046128;28;20459;-83
2021/03/27 05:32:50;;;;;;;1.17;0.40;;;;;;;7.12;84.78;96587.59;5046406;28;20475;-83
2021/03/27 05:35:27;;;;;;;0.93;0.63;;;;;;;7.17;85.03;96600.22;5047104;28;20453;-83
2021/03/27 05:38:07;;;;;;;9.70;1.00;;;;;;;7.09;85.29;96590.56;5046760;28;20528;-82
2021/03/27 05:40:48;;;;;;;3.70;0.80;;;;;;;7.08;85.10;96607.91;5045618;28;20829;-82
2021/03/27 05:43:42;;;;;;;1.33;0.60;;;;;;;7.17;84.48;96602.88;5045432;28;20510;-83
2021/03/27 05:46:53;;;;;;;1.30;0.60;;;;;;;7.18;85.08;96619.69;5045949;28;20514;-83
2021/03/27 05:49:58;;;;;;;1.20;0.70;;;;;;;7.25;84.57;96630.56;5045758;28;20430;-83
2021/03/27 05:52:55;;;;;;;0.60;0.60;;;;;;;7.09;85.49;96644.94;5046473;28;20487;-83
2021/03/27 05:56:09;;;;;;;1.00;0.60;;;;;;;7.18;85.23;96651.88;5046334;28;20944;-83
2021/03/27 05:58:56;;;;;;;0.50;0.50;;;;;;;7.21;85.02;96667.69;5047204;28;20617;-83
2021/03/27 06:01:41;;;;;;;1.17;0.60;;;;;;;7.26;84.93;96677.66;5046568;28;20563;-83
2021/03/27 06:04:28;;;;;;;0.70;0.70;;;;;;;7.19;83.29;96685.56;5045262;28;20425;-83
2021/03/27 06:07:25;;;;;;;2.43;0.77;;;;;;;7.18;83.83;96690.19;5044657;28;20506;-83
2021/03/27 06:10:14;;;;;;;1.63;0.60;;;;;;;7.18;82.17;96700.91;5044255;28;20455;-85
2021/03/27 06:12:57;;;;;;;1.10;0.83;;;;;;;7.18;81.85;96702.88;5044755;28;20442;-83
2021/03/27 06:15:49;;;;;;;0.73;0.60;;;;;;;7.22;82.12;96714.06;5043899;28;20916;-84
2021/03/27 06:19:06;;;;;;;3.70;0.50;;;;;;;7.36;81.52;96713.59;5044108;28;21031;-82
2021/03/27 06:21:44;;;;;;;0.40;0.40;;;;;;;7.44;81.45;96714.47;5019179;28;20455;-82
2021/03/27 06:24:33;;;;;;;0.83;0.50;;;;;;;7.36;80.45;96716.28;5044208;28;20490;-81
2021/03/27 06:27:11;;;;;;;1.97;0.70;;;;;;;7.32;79.88;96731.97;5044120;28;20435;-83
2021/03/27 06:30:13;;;;;;;2.10;1.10;;;;;;;7.23;79.48;96732.34;5044427;28;20530;-82
2021/03/27 06:33:11;;;;;;;0.90;0.70;;;;;;;7.08;79.64;96737.38;5043630;28;20514;-83
2021/03/27 06:35:52;;;;;;;2.57;0.80;;;;;;;6.97;81.75;96743.63;5044341;28;20451;-82
2021/03/27 06:38:50;;;;;;;1.03;0.70;;;;;;;6.94;81.35;96735.88;5042319;28;20563;-85
2021/03/27 06:41:40;;;;;;;2.00;0.80;;;;;;;7.14;80.56;96748.78;5042824;28;20442;-83
2021/03/27 06:44:18;;;;;;;1.17;0.60;;;;;;;7.21;79.84;96750.88;5058055;28;20529;-83
2021/03/27 06:47:17;;;;;;;3.43;0.77;;;;;;;7.66;78.80;96758.34;5059046;28;20433;-83
2021/03/27 06:50:10;;;;;;;1.00;0.80;;;;;;;8.61;75.02;96759.00;5052738;28;20541;-83
2021/03/27 06:52:47;;;;;;;0.80;0.70;;;;;;;9.46;71.31;96772.31;5040606;28;20514;-84
2021/03/27 06:55:30;;;;;;;1.13;0.70;;;;;;;9.82;68.50;96770.50;5040984;28;20452;-84
2021/03/27 06:58:38;;;;;;;1.77;0.60;;;;;;;9.72;67.60;96774.91;5040168;28;20534;-85
2021/03/27 07:01:49;;;;;;;2.73;0.77;;;;;;;8.90;69.33;96781.47;5040912;28;20436;-84
2021/03/27 07:04:44;;;;;;;2.30;1.33;;;;;;;8.65;68.98;96790.97;5005056;28;20447;-82
2021/03/27 07:07:35;;;;;;;1.13;0.80;;;;;;;8.28;70.14;96796.50;5042245;28;20430;-83
2021/03/27 07:11:01;;;;;;;1.20;0.73;;;;;;;8.27;69.99;96795.75;5054166;28;20467;-83
2021/03/27 07:14:05;;;;;;;3.43;1.10;;;;;;;8.74;67.59;96803.31;4979258;28;20449;-84
2021/03/27 07:16:37;;;;;;;3.93;1.10;;;;;;;8.85;66.25;96805.78;5047038;28;20405;-83
2021/03/27 07:19:45;;;;;;;4.00;0.60;;;;;;;10.08;63.11;96802.03;5047604;28;20483;-85
2021/03/27 07:22:32;;;;;;;1.60;0.70;;;;;;;10.90;59.54;96808.63;5039441;28;20461;-85
2021/03/27 07:25:24;;;;;;;2.27;1.20;;;;;;;11.25;56.98;96808.63;5040069;28;20432;-84
2021/03/27 07:28:16;;;;;;;1.50;1.03;;;;;;;11.74;55.96;96808.50;5038889;28;20448;-83
2021/03/27 07:31:17;;;;;;;3.07;0.97;;;;;;;12.33;54.96;96813.81;5040841;28;20580;-84
2021/03/27 07:33:58;;;;;;;1.03;0.73;;;;;;;12.54;52.05;96819.06;5041231;28;20453;-84
2021/03/27 07:36:39;;;;;;;3.40;0.80;;;;;;;12.07;52.69;96823.00;5041755;28;20420;-83
2021/03/27 07:39:33;;;;;;;3.07;0.70;;;;;;;11.25;52.56;96816.00;5041802;28;20498;-84
2021/03/27 07:42:32;;;;;;;9.50;1.40;;;;;;;10.72;54.89;96819.13;5039911;28;20508;-82
2021/03/27 07:45:14;;;;;;;3.47;0.90;;;;;;;11.27;53.69;96819.66;5043028;28;20486;-83
2021/03/27 07:48:08;;;;;;;1.37;0.60;;;;;;;12.03;50.45;96813.78;5042524;28;20446;-83
2021/03/27 07:50:55;;;;;;;4.10;1.07;;;;;;;12.32;49.88;96813.09;5041687;28;20442;-84
2021/03/27 07:53:41;;;;;;;1.27;0.60;;;;;;;12.31;49.03;96816.34;5040908;28;20422;-85
2021/03/27 07:56:34;;;;;;;2.37;1.23;;;;;;;12.53;48.86;96829.16;5041298;28;20454;-84
2021/03/27 07:59:36;;;;;;;2.90;1.00;;;;;;;12.71;47.72;96830.81;5041381;28;20469;-82
2021/03/27 08:02:30;;;;;;;1.60;0.70;;;;;;;12.09;48.15;96827.88;5044578;28;20431;-82
2021/03/27 08:05:32;;;;;;;2.20;0.80;;;;;;;12.39;48.77;96827.19;5037953;28;20482;-82
2021/03/27 08:08:18;;;;;;;2.63;0.80;;;;;;;12.86;46.97;96838.91;5043858;28;20518;-83
2021/03/27 08:11:02;;;;;;;4.63;1.10;;;;;;;12.40;48.98;96831.34;5045478;28;20571;-83
2021/03/27 08:13:49;;;;;;;4.60;1.10;;;;;;;12.22;49.01;96835.81;5048571;28;20443;-83
2021/03/27 08:16:37;;;;;;;2.40;0.70;;;;;;;11.87;50.25;96829.28;5034387;28;20425;-82
2021/03/27 08:19:54;;;;;;;4.40;0.97;;;;;;;11.12;51.67;96845.84;5046105;28;20576;-82
2021/03/27 08:22:56;;;;;;;5.50;3.83;;;;;;;11.10;51.86;96842.94;5011129;28;20500;-83
2021/03/27 08:25:35;;;;;;;13.27;1.37;;;;;;;10.65;52.11;96843.38;5048381;28;20441;-82
2021/03/27 08:28:39;;;;;;;2.70;0.97;;;;;;;10.29;53.28;96854.03;5047512;28;20425;-82
2021/03/27 08:31:55;;;;;;;7.33;1.40;;;;;;;10.15;53.71;96841.84;5045722;28;20421;-83
2021/03/27 08:34:58;;;;;;;2.00;1.00;;;;;;;9.83;53.48;96854.78;5012468;28;20455;-83
2021/03/27 08:37:41;;;;;;;2.20;0.70;;;;;;;9.60;52.82;96843.75;5048592;28;20511;-83
2021/03/27 08:40:30;;;;;;;0.73;0.40;;;;;;;9.45;52.79;96851.66;5048130;28;20554;-81
2021/03/27 08:43:28;;;;;;;2.50;0.67;;;;;;;9.56;52.45;96854.84;5047287;28;20417;-84
2021/03/27 08:46:39;;;;;;;3.70;1.63;;;;;;;9.65;51.70;96856.38;5046644;28;20481;-85
2021/03/27 08:49:37;;;;;;;5.00;1.30;;;;;;;9.31;49.09;96853.63;5043427;28;20525;-84
2021/03/27 08:52:17;;;;;;;2.40;0.90;;;;;;;9.23;48.80;96863.56;5044222;28;20775;-85
2021/03/27 08:54:59;;;;;;;5.57;1.07;;;;;;;9.21;47.04;96868.72;5044396;28;20428;-86
2021/03/27 08:57:56;;;;;;;2.40;0.90;;;;;;;9.41;49.16;96865.44;5043856;28;20401;-84
2021/03/27 09:00:58;;;;;;;0.60;0.50;;;;;;;9.51;48.03;96879.94;5051211;28;20558;-84
2021/03/27 09:03:56;;;;;;;1.27;0.73;;;;;;;9.68;46.51;96880.31;5045625;28;20435;-83
2021/03/27 09:06:32;;;;;;;2.40;0.53;;;;;;;9.51;46.63;96888.00;5045633;28;20485;-82
2021/03/27 09:09:36;;;;;;;1.03;0.80;;;;;;;9.59;45.63;96898.88;5045260;28;20516;-82
2021/03/27 09:12:16;;;;;;;1.33;0.80;;;;;;;9.58;44.54;96903.56;4962809;29;21011;-84
2021/03/27 09:15:19;;;;;;;4.33;1.10;;;;;;;9.59;44.07;96904.97;5034868;28;20898;-83
2021/03/27 09:18:13;;;;;;;1.27;0.50;;;;;;;9.66;45.08;96911.72;5045032;28;20473;-84
2021/03/27 09:20:54;;;;;;;3.10;0.60;;;;;;;9.46;46.68;96921.16;5044651;28;20498;-84
2021/03/27 09:23:29;;;;;;;0.60;0.50;;;;;;;9.57;46.79;96920.94;5042180;28;20809;-83
2021/03/27 09:26:20;;;;;;;2.20;0.67;;;;;;;9.75;45.56;96918.63;5044495;28;20449;-83
2021/03/27 09:29:00;;;;;;;1.80;0.60;;;;;;;9.97;46.39;96907.41;5048078;28;20512;-82
2021/03/27 09:31:53;;;;;;;3.27;1.10;;;;;;;10.09;46.16;96914.75;5044709;28;20520;-84
2021/03/27 09:34:35;;;;;;;1.80;0.70;;;;;;;10.29;47.04;96921.47;5044016;28;20433;-83
2021/03/27 09:37:18;;;;;;;1.77;0.57;;;;;;;10.23;45.33;96923.56;5044725;28;20466;-82
2021/03/27 09:39:52;;;;;;;2.33;0.60;;;;;;;10.24;45.76;96926.97;5042966;28;20923;-82
2021/03/27 09:42:39;;;;;;;0.60;0.40;;;;;;;10.42;45.94;96926.09;5042961;28;20518;-83
2021/03/27 09:45:27;;;;;;;3.37;0.63;;;;;;;10.39;45.74;96927.13;5041501;28;20523;-84
2021/03/27 09:48:21;;;;;;;1.17;0.57;;;;;;;10.56;45.50;96930.16;5046044;28;20489;-84
2021/03/27 09:50:54;;;;;;;1.17;0.50;;;;;;;10.62;45.37;96930.75;5043364;28;20442;-82
2021/03/27 09:53:43;;;;;;;3.03;0.70;;;;;;;10.67;45.30;96938.03;5046023;28;20490;-82
2021/03/27 09:56:14;;;;;;;1.27;0.60;;;;;;;10.75;44.04;96926.03;5048477;28;20474;-83
2021/03/27 09:58:58;;;;;;;1.13;0.50;;;;;;;10.77;44.59;96938.28;5047191;28;20486;-82
2021/03/27 10:01:31;;;;;;;1.03;0.50;;;;;;;10.95;43.05;96924.59;5047103;28;20579;-83
2021/03/27 10:04:09;;;;;;;1.40;0.57;;;;;;;10.96;43.18;96947.63;5046968;28;20848;-82
2021/03/27 10:07:03;;;;;;;2.37;0.83;;;;;;;10.64;42.33;96942.50;5041845;28;20470;-85
2021/03/27 10:09:37;;;;;;;1.87;1.10;;;;;;;10.66;43.25;96944.66;5042649;28;20486;-85
2021/03/27 10:12:12;;;;;;;1.93;0.77;;;;;;;10.77;43.07;96938.28;5042437;28;20458;-84
2021/03/27 10:14:48;;;;;;;1.20;0.70;;;;;;;10.92;43.50;96936.44;5045426;28;20764;-81
2021/03/27 10:17:22;;;;;;;1.67;0.70;;;;;;;11.01;43.52;96930.56;5044967;28;20485;-83
2021/03/27 10:19:56;;;;;;;0.70;0.57;;;;;;;11.19;43.56;96939.69;5046848;28;20495;-81
2021/03/27 10:22:30;;;;;;;1.83;0.90;;;;;;;11.03;42.95;96943.53;5047728;28;20402;-81
2021/03/27 10:25:02;;;;;;;1.60;1.03;;;;;;;11.08;42.57;96940.72;5044706;28;20940;-81
2021/03/27 10:27:39;;;;;;;1.10;0.67;;;;;;;11.19;43.74;96958.59;5044574;28;20439;-82
2021/03/27 10:30:18;;;;;;;5.37;2.70;;;;;;;11.26;43.23;96947.13;5043996;28;20452;-81
2021/03/27 10:33:12;;;;;;;2.23;0.70;;;;;;;11.03;41.36;96967.81;5044069;28;20406;-81
2021/03/27 10:35:54;;;;;;;3.37;0.73;;;;;;;11.17;40.93;96958.41;5040834;28;20923;-81
2021/03/27 10:38:46;;;;;;;1.80;1.13;;;;;;;11.39;41.11;96952.44;5044271;28;20477;-81
2021/03/27 10:41:21;;;;;;;4.63;0.70;;;;;;;11.53;40.39;96964.59;5046369;28;20406;-84
2021/03/27 10:43:53;;;;;;;2.70;0.77;;;;;;;11.53;39.67;96978.09;5042792;28;20432;-83
2021/03/27 10:46:26;;;;;;;3.73;0.90;;;;;;;11.49;40.27;96974.31;5042899;28;20409;-84
2021/03/27 10:49:11;;;;;;;1.83;0.63;;;;;;;11.58;40.37;96977.25;5041460;28;20824;-84
2021/03/27 10:52:28;;;;;;;1.20;0.50;;;;;;;11.85;40.02;96977.78;5042422;28;20402;-84
2021/03/27 10:55:32;;;;;;;1.20;0.73;;;;;;;11.82;38.40;96987.69;5046155;28;20451;-85
2021/03/27 10:58:34;;;;;;;2.13;0.87;;;;;;;11.69;37.42;96985.06;5044443;28;20398;-86
2021/03/27 11:01:21;;;;;;;1.77;0.60;;;;;;;11.70;38.49;96980.41;5020834;28;20458;-84
2021/03/27 11:04:06;;;;;;;2.43;0.80;;;;;;;11.80;39.37;96994.91;5041762;28;20507;-85
2021/03/27 11:06:49;;;;;;;3.17;0.77;;;;;;;11.91;38.23;96991.16;5043125;28;20438;-86
2021/03/27 11:10:00;;;;;;;4.03;0.90;;;;;;;12.06;37.99;96996.66;5043928;28;20550;-86
2021/03/27 11:12:50;;;;;;;3.67;0.80;;;;;;;12.30;38.80;96990.78;5042584;28;20462;-85
2021/03/27 11:15:51;;;;;;;3.30;1.33;;;;;;;12.44;38.85;96986.69;5031050;28;20502;-85
2021/03/27 11:18:39;;;;;;;4.07;1.47;;;;;;;12.54;38.57;97003.13;5031620;28;20489;-84
2021/03/27 11:21:32;;;;;;;3.03;0.70;;;;;;;12.43;38.26;96996.09;5042310;28;20459;-84
2021/03/27 11:24:24;;;;;;;2.93;0.83;;;;;;;12.62;37.92;96985.66;5019192;28;20858;-85
2021/03/27 11:27:24;;;;;;;4.87;1.00;;;;;;;12.57;37.80;96997.38;5023081;28;20444;-85
2021/03/27 11:30:00;;;;;;;1.43;0.73;;;;;;;12.78;38.00;96997.97;5025050;28;20514;-84
2021/03/27 11:32:32;;;;;;;1.47;0.60;;;;;;;12.78;37.91;96997.97;5022969;28;20493;-83
2021/03/27 11:35:03;;;;;;;5.40;1.37;;;;;;;12.93;38.08;96991.13;5022559;28;20460;-85
2021/03/27 11:37:42;;;;;;;1.33;0.70;;;;;;;13.07;38.10;97005.94;5023223;28;20867;-83
2021/03/27 11:40:22;;;;;;;2.97;0.90;;;;;;;13.12;37.71;96999.66;5023490;28;20498;-82
2021/03/27 11:42:59;;;;;;;2.27;1.10;;;;;;;13.10;37.13;97005.63;5022107;28;20414;-84
2021/03/27 11:45:32;;;;;;;2.30;0.90;;;;;;;12.76;36.87;96995.06;5021289;28;20425;-84
2021/03/27 11:48:02;;;;;;;3.13;1.40;;;;;;;12.54;37.21;96989.59;5021710;28;20495;-82
2021/03/27 11:50:55;;;;;;;4.43;1.10;;;;;;;12.68;36.87;96994.34;5025854;28;20468;-87
2021/03/27 11:53:51;;;;;;;4.93;0.90;;;;;;;12.39;37.72;97009.22;5025045;28;20440;-88
2021/03/27 11:56:30;;;;;;;4.70;1.07;;;;;;;11.96;38.56;97009.22;5024359;28;20411;-88
2021/03/27 12:01:58;;;;;;;1.20;0.80;;;;;;;11.38;39.83;97001.59;5026467;28;20439;-88
2021/03/27 12:04:47;;;;;;;1.57;0.63;;;;;;;11.09;40.15;97008.94;5022951;28;20409;-84
2021/03/27 12:07:21;;;;;;;4.00;1.20;;;;;;;11.12;40.49;96992.41;5022906;28;20492;-87
2021/03/27 12:09:56;;;;;;;1.70;0.80;;;;;;;11.13;40.88;97006.63;5021142;28;20509;-82
2021/03/27 12:12:35;;;;;;;2.47;0.90;;;;;;;11.01;41.04;96998.06;5024348;28;20412;-80
2021/03/27 12:15:27;;;;;;;4.03;0.77;;;;;;;11.12;41.32;97007.91;5023885;28;20440;-85
2021/03/27 12:18:08;;;;;;;4.83;1.00;;;;;;;11.03;41.54;97013.75;5021865;28;20497;-85
2021/03/27 12:20:40;;;;;;;2.50;0.80;;;;;;;10.93;41.58;97016.16;5021423;28;20434;-83
2021/03/27 12:23:22;;;;;;;2.13;0.70;;;;;;;10.95;40.88;97004.84;5038558;28;20431;-84
2021/03/27 12:26:01;;;;;;;2.37;0.77;;;;;;;10.97;41.06;97016.56;5042148;28;20485;-85
2021/03/27 12:28:43;;;;;;;3.57;1.00;;;;;;;11.05;40.23;97008.56;5042297;28;20419;-85
2021/03/27 12:31:21;;;;;;;2.00;0.73;;;;;;;10.86;41.56;97005.31;5042387;28;20497;-84
2021/03/27 12:34:07;;;;;;;4.27;1.03;;;;;;;10.90;40.94;97030.00;5042739;28;20411;-85
2021/03/27 12:36:49;;;;;;;1.50;1.20;;;;;;;10.81;41.00;97020.38;5041736;28;20390;-87
2021/03/27 12:39:24;;;;;;;2.90;0.90;;;;;;;10.89;40.68;97031.25;5041923;28;20457;-85
2021/03/27 12:42:01;;;;;;;1.27;0.70;;;;;;;10.94;41.15;97027.69;5047714;28;20426;-84
2021/03/27 12:44:33;;;;;;;2.37;1.00;;;;;;;11.03;40.89;97019.88;5056964;28;20454;-85
2021/03/27 12:47:14;;;;;;;2.40;0.90;;;;;;;11.00;41.55;97025.59;5056560;28;20498;-85
2021/03/27 12:49:52;;;;;;;2.00;0.77;;;;;;;11.08;41.67;97019.03;5046652;28;20572;-89
2021/03/27 12:52:45;;;;;;;6.07;1.40;;;;;;;11.05;41.86;97024.75;5042887;28;20419;-87